createdAt,value
2022-12-15T00:00:34.013Z,24.93
2022-12-15T00:03:25.484Z,27.07
2022-12-15T00:06:11.630Z,27.13
2022-12-15T00:08:57.679Z,27.00
2022-12-15T00:11:43.403Z,26.90
2022-12-15T00:14:29.519Z,26.13
2022-12-15T00:17:15.174Z,26.93
2022-12-15T00:20:02.552Z,27.00
2022-12-15T00:22:48.195Z,26.97
2022-12-15T00:25:34.244Z,27.23
2022-12-15T00:28:20.225Z,25.93
2022-12-15T00:31:06.031Z,26.63
2022-12-15T00:33:51.646Z,26.47
2022-12-15T00:36:38.694Z,27.27
2022-12-15T00:39:06.982Z,26.13
2022-12-15T00:41:35.640Z,26.40
2022-12-15T00:44:04.231Z,26.70
2022-12-15T00:46:49.927Z,27.87
2022-12-15T00:49:32.243Z,27.63
2022-12-15T00:52:19.335Z,26.80
2022-12-15T00:55:05.178Z,26.27
2022-12-15T00:57:52.068Z,25.13
2022-12-15T01:00:38.650Z,26.90
2022-12-15T01:03:30.727Z,28.10
2022-12-15T01:06:17.571Z,25.27
2022-12-15T01:09:04.599Z,26.90
2022-12-15T01:11:50.712Z,25.30
2022-12-15T01:14:36.423Z,25.93
2022-12-15T01:17:22.120Z,25.23
2022-12-15T01:20:07.947Z,25.43
2022-12-15T01:22:38.181Z,25.27
2022-12-15T01:25:09.839Z,26.17
2022-12-15T01:27:38.332Z,26.13
2022-12-15T01:30:08.967Z,25.63
2022-12-15T01:32:41.412Z,25.03
2022-12-15T01:35:14.746Z,26.53
2022-12-15T01:37:43.445Z,25.63
2022-12-15T01:40:33.001Z,25.20
2022-12-15T01:43:01.564Z,27.23
2022-12-15T01:45:50.786Z,26.47
2022-12-15T01:48:31.735Z,26.63
2022-12-15T01:51:12.524Z,26.07
2022-12-15T01:53:45.294Z,26.23
2022-12-15T01:56:20.816Z,26.73
2022-12-15T01:58:50.921Z,26.40
2022-12-15T02:01:19.523Z,27.37
2022-12-15T02:03:49.238Z,26.53
2022-12-15T02:06:21.507Z,26.33
2022-12-15T02:08:51.933Z,23.93
2022-12-15T02:11:50.326Z,25.23
2022-12-15T02:14:25.850Z,24.67
2022-12-15T02:17:07.725Z,24.93
2022-12-15T02:20:23.628Z,26.73
2022-12-15T02:23:12.817Z,26.80
2022-12-15T02:25:54.564Z,26.50
2022-12-15T02:28:33.347Z,25.57
2022-12-15T02:31:23.907Z,25.50
2022-12-15T02:33:56.183Z,24.73
2022-12-15T02:36:29.669Z,24.57
2022-12-15T02:38:58.202Z,26.17
2022-12-15T02:41:36.979Z,25.13
2022-12-15T02:44:09.524Z,24.57
2022-12-15T02:46:52.529Z,24.10
2022-12-15T02:49:27.516Z,22.47
2022-12-15T02:52:07.428Z,24.67
2022-12-15T02:54:48.675Z,25.70
2022-12-15T02:57:21.253Z,24.60
2022-12-15T02:59:56.977Z,25.37
2022-12-15T03:02:30.124Z,25.50
2022-12-15T03:04:59.796Z,25.27
2022-12-15T03:07:28.958Z,26.17
2022-12-15T03:09:58.120Z,25.93
2022-12-15T03:12:27.598Z,26.93
2022-12-15T03:14:56.177Z,24.77
2022-12-15T03:17:24.642Z,25.30
2022-12-15T03:19:54.490Z,25.47
2022-12-15T03:22:22.863Z,26.70
2022-12-15T03:24:51.512Z,26.03
2022-12-15T03:27:20.059Z,25.87
2022-12-15T03:29:48.719Z,26.57
2022-12-15T03:32:17.283Z,27.97
2022-12-15T03:34:46.184Z,25.83
2022-12-15T03:37:15.950Z,25.43
2022-12-15T03:39:44.348Z,25.53
2022-12-15T03:42:12.835Z,25.40
2022-12-15T03:44:41.315Z,24.83
2022-12-15T03:47:09.733Z,25.47
2022-12-15T03:49:38.098Z,24.93
2022-12-15T03:52:06.883Z,25.03
2022-12-15T03:54:36.698Z,24.23
2022-12-15T03:57:06.160Z,27.40
2022-12-15T03:59:34.560Z,25.30
2022-12-15T04:02:03.153Z,24.23
2022-12-15T04:04:32.172Z,22.93
2022-12-15T04:07:00.524Z,24.53
2022-12-15T04:09:29.041Z,22.77
2022-12-15T04:11:58.785Z,23.07
2022-12-15T04:14:27.306Z,21.90
2022-12-15T04:16:55.730Z,23.03
2022-12-15T04:19:41.764Z,22.93
2022-12-15T04:22:14.925Z,22.90
2022-12-15T04:25:03.332Z,22.30
2022-12-15T04:27:50.577Z,21.93
2022-12-15T04:30:36.750Z,22.47
2022-12-15T04:33:26.410Z,22.33
2022-12-15T04:36:16.538Z,22.50
2022-12-15T04:39:05.553Z,23.17
2022-12-15T04:41:51.424Z,22.87
2022-12-15T04:44:38.681Z,22.20
2022-12-15T04:47:24.387Z,22.33
2022-12-15T04:50:10.340Z,21.83
2022-12-15T04:52:56.264Z,21.93
2022-12-15T04:55:42.130Z,20.50
2022-12-15T04:58:28.901Z,21.10
2022-12-15T05:01:17.545Z,21.50
2022-12-15T05:04:04.059Z,20.03
2022-12-15T05:06:50.125Z,21.27
2022-12-15T05:09:35.952Z,21.20
2022-12-15T05:12:21.797Z,21.70
2022-12-15T05:15:07.581Z,20.17
2022-12-15T05:17:54.698Z,22.43
2022-12-15T05:20:40.887Z,22.70
2022-12-15T05:23:26.802Z,22.17
2022-12-15T05:26:13.082Z,22.70
2022-12-15T05:28:58.737Z,21.87
2022-12-15T05:31:44.511Z,22.37
2022-12-15T05:34:14.361Z,22.13
2022-12-15T05:36:42.863Z,22.17
2022-12-15T05:39:11.205Z,22.57
2022-12-15T05:41:39.660Z,22.20
2022-12-15T05:44:08.252Z,21.67
2022-12-15T05:46:36.773Z,21.60
2022-12-15T05:49:06.345Z,21.77
2022-12-15T05:51:40.354Z,21.10
2022-12-15T05:54:08.801Z,20.77
2022-12-15T05:56:37.766Z,22.70
2022-12-15T05:59:06.645Z,22.63
2022-12-15T06:01:37.011Z,22.83
2022-12-15T06:04:12.811Z,20.77
2022-12-15T06:06:43.342Z,23.23
2022-12-15T06:09:12.087Z,23.50
2022-12-15T06:11:40.581Z,23.03
2022-12-15T06:14:09.815Z,22.90
2022-12-15T06:16:44.175Z,22.27
2022-12-15T06:19:20.516Z,21.70
2022-12-15T06:21:50.526Z,22.00
2022-12-15T06:24:19.187Z,22.30
2022-12-15T06:26:49.657Z,21.13
2022-12-15T06:29:18.664Z,21.13
2022-12-15T06:31:47.562Z,21.40
2022-12-15T06:34:17.606Z,20.13
2022-12-15T06:36:46.103Z,21.10
2022-12-15T06:39:17.211Z,20.00
2022-12-15T06:41:45.697Z,19.70
2022-12-15T06:44:15.488Z,20.93
2022-12-15T06:46:45.738Z,20.17
2022-12-15T06:49:15.035Z,20.23
2022-12-15T06:51:45.168Z,20.90
2022-12-15T06:54:15.511Z,19.77
2022-12-15T06:56:44.305Z,20.90
2022-12-15T06:59:13.885Z,20.90
2022-12-15T07:01:43.158Z,20.47
2022-12-15T07:04:12.422Z,20.20
2022-12-15T07:06:42.443Z,20.90
2022-12-15T07:09:18.148Z,21.37
2022-12-15T07:11:49.376Z,18.87
2022-12-15T07:14:17.837Z,19.70
2022-12-15T07:16:46.383Z,20.90
2022-12-15T07:19:14.812Z,19.97
2022-12-15T07:21:43.352Z,20.20
2022-12-15T07:24:13.119Z,20.27
2022-12-15T07:26:43.280Z,19.17
2022-12-15T07:29:14.936Z,20.03
2022-12-15T07:31:47.284Z,20.10
2022-12-15T07:34:15.771Z,21.20
2022-12-15T07:36:50.013Z,20.10
2022-12-15T07:39:20.562Z,19.90
2022-12-15T07:41:50.468Z,20.70
2022-12-15T07:44:19.009Z,19.63
2022-12-15T07:46:49.318Z,19.23
2022-12-15T07:49:18.001Z,19.07
2022-12-15T07:51:46.642Z,17.77
2022-12-15T07:54:15.823Z,19.20
2022-12-15T07:56:44.290Z,18.97
2022-12-15T07:59:20.712Z,19.17
2022-12-15T08:01:49.663Z,18.87
2022-12-15T08:04:18.557Z,18.50
2022-12-15T08:06:46.815Z,17.97
2022-12-15T08:09:15.440Z,19.03
2022-12-15T08:11:43.815Z,18.40
2022-12-15T08:14:17.364Z,18.90
2022-12-15T08:16:48.279Z,18.27
2022-12-15T08:19:17.897Z,36.90
2022-12-15T08:21:47.423Z,43.67
2022-12-15T08:24:16.490Z,32.03
2022-12-15T08:26:50.144Z,29.00
2022-12-15T08:32:09.273Z,30.90
2022-12-15T08:34:38.107Z,32.47
2022-12-15T08:37:06.500Z,29.53
2022-12-15T08:39:35.131Z,24.63
2022-12-15T08:42:03.609Z,20.43
2022-12-15T08:44:32.085Z,21.53
2022-12-15T08:47:00.453Z,20.80
2022-12-15T08:49:30.306Z,19.83
2022-12-15T08:51:58.691Z,23.80
2022-12-15T08:54:27.182Z,22.13
2022-12-15T08:56:55.659Z,19.13
2022-12-15T08:59:24.164Z,19.23
2022-12-15T09:01:52.685Z,19.80
2022-12-15T09:04:21.306Z,26.00
2022-12-15T09:06:51.262Z,27.57
2022-12-15T09:09:20.600Z,22.20
2022-12-15T09:11:49.131Z,20.80
2022-12-15T09:14:18.972Z,21.10
2022-12-15T09:16:50.577Z,19.70
2022-12-15T09:19:21.730Z,19.50
2022-12-15T09:21:51.358Z,20.00
2022-12-15T09:24:28.898Z,20.70
2022-12-15T09:27:03.177Z,18.73
2022-12-15T09:29:31.660Z,19.50
2022-12-15T09:32:00.379Z,21.70
2022-12-15T09:34:29.016Z,19.83
2022-12-15T09:36:58.782Z,18.10
2022-12-15T09:39:27.204Z,19.30
2022-12-15T09:41:58.623Z,19.33
2022-12-15T09:44:28.691Z,20.30
2022-12-15T09:47:06.051Z,18.83
2022-12-15T09:49:54.950Z,19.50
2022-12-15T09:52:27.494Z,17.67
2022-12-15T09:54:56.057Z,19.43
2022-12-15T09:57:34.914Z,20.30
2022-12-15T10:00:10.080Z,19.63
2022-12-15T10:03:11.337Z,20.37
2022-12-15T10:08:40.904Z,19.60
2022-12-15T10:11:21.965Z,21.07
2022-12-15T10:13:56.073Z,25.70
2022-12-15T10:16:28.603Z,26.73
2022-12-15T10:19:03.360Z,21.17
2022-12-15T10:21:32.748Z,21.47
2022-12-15T10:24:13.036Z,24.00
2022-12-15T10:26:42.973Z,21.13
2022-12-15T10:29:25.861Z,19.90
2022-12-15T10:31:56.704Z,19.93
2022-12-15T10:34:27.849Z,19.30
2022-12-15T10:36:57.715Z,19.77
2022-12-15T10:39:40.202Z,19.63
2022-12-15T10:42:14.938Z,21.07
2022-12-15T10:44:45.603Z,24.60
2022-12-15T10:47:22.686Z,21.23
2022-12-15T10:49:51.673Z,21.07
2022-12-15T10:52:32.400Z,20.27
2022-12-15T10:55:02.201Z,20.50
2022-12-15T10:57:33.658Z,18.83
2022-12-15T11:00:27.970Z,19.43
2022-12-15T11:02:56.745Z,19.53
2022-12-15T11:05:25.416Z,18.23
2022-12-15T11:07:55.568Z,18.70
2022-12-15T11:10:27.395Z,18.83
2022-12-15T11:12:58.712Z,16.87
2022-12-15T11:15:45.889Z,16.67
2022-12-15T11:18:34.200Z,17.43
2022-12-15T11:21:04.277Z,19.60
2022-12-15T11:23:48.958Z,18.90
2022-12-15T11:26:30.501Z,20.27
2022-12-15T11:29:02.396Z,19.33
2022-12-15T11:31:35.281Z,19.67
2022-12-15T11:34:03.960Z,17.43
2022-12-15T11:36:48.459Z,16.27
2022-12-15T11:39:23.721Z,20.57
2022-12-15T11:41:56.534Z,17.30
2022-12-15T11:44:29.086Z,16.67
2022-12-15T11:47:07.236Z,18.00
2022-12-15T11:49:54.276Z,18.80
2022-12-15T11:52:52.994Z,17.20
2022-12-15T11:55:32.146Z,16.30
2022-12-15T11:58:34.299Z,17.50
2022-12-15T12:01:06.872Z,17.10
2022-12-15T12:03:39.683Z,17.40
2022-12-15T12:06:18.723Z,22.43
2022-12-15T12:08:56.526Z,19.33
2022-12-15T12:11:30.390Z,16.60
2022-12-15T12:14:18.742Z,17.20
2022-12-15T12:16:51.166Z,18.23
2022-12-15T12:19:21.786Z,18.03
2022-12-15T12:21:51.923Z,18.60
2022-12-15T12:24:22.554Z,18.93
2022-12-15T12:26:55.150Z,18.27
2022-12-15T12:29:29.401Z,19.53
2022-12-15T12:32:05.239Z,16.80
2022-12-15T12:34:43.654Z,17.77
2022-12-15T12:37:20.788Z,17.90
2022-12-15T12:39:50.037Z,17.63
2022-12-15T12:42:23.268Z,17.50
2022-12-15T12:44:53.098Z,19.13
2022-12-15T12:47:25.197Z,18.93
2022-12-15T12:49:58.251Z,19.93
2022-12-15T12:52:29.543Z,17.57
2022-12-15T12:55:01.192Z,19.13
2022-12-15T12:57:38.263Z,18.33
2022-12-15T13:00:23.168Z,17.67
2022-12-15T13:03:20.190Z,17.60
2022-12-15T13:05:51.714Z,17.73
2022-12-15T13:08:51.772Z,19.40
2022-12-15T13:14:51.717Z,18.23
2022-12-15T13:17:32.012Z,19.63
2022-12-15T13:20:26.139Z,18.67
2022-12-15T13:22:56.382Z,17.60
2022-12-15T13:25:36.728Z,18.33
2022-12-15T13:28:20.403Z,19.23
2022-12-15T13:31:28.905Z,20.67
2022-12-15T13:34:07.730Z,19.03
2022-12-15T13:36:56.482Z,19.30
2022-12-15T13:39:57.332Z,19.37
2022-12-15T13:42:37.079Z,24.98
2022-12-15T13:45:45.359Z,19.30
2022-12-15T13:48:31.911Z,18.43
2022-12-15T13:51:21.251Z,18.63
2022-12-15T13:53:54.085Z,18.17
2022-12-15T13:56:40.377Z,20.10
2022-12-15T13:59:16.503Z,19.97
2022-12-15T14:01:51.096Z,20.83
2022-12-15T14:04:20.721Z,20.03
2022-12-15T14:06:53.679Z,20.27
2022-12-15T14:09:26.850Z,18.30
2022-12-15T14:11:55.809Z,19.27
2022-12-15T14:14:27.799Z,19.60
2022-12-15T14:17:01.744Z,20.73
2022-12-15T14:19:39.961Z,22.60
2022-12-15T14:22:27.677Z,23.13
2022-12-15T14:25:02.392Z,26.57
2022-12-15T14:27:32.895Z,22.47
2022-12-15T14:30:13.474Z,22.43
2022-12-15T14:32:42.561Z,20.27
2022-12-15T14:35:15.683Z,24.03
2022-12-15T14:37:45.889Z,20.10
2022-12-15T14:40:15.953Z,21.70
2022-12-15T14:42:45.171Z,27.07
2022-12-15T14:45:20.811Z,22.03
2022-12-15T14:48:13.448Z,22.93
2022-12-15T14:50:47.606Z,21.43
2022-12-15T14:53:19.059Z,26.13
2022-12-15T14:55:47.976Z,20.47
2022-12-15T14:58:31.788Z,19.23
2022-12-15T15:01:01.459Z,20.03
2022-12-15T15:03:07.288Z,18.40
2022-12-15T15:03:38.468Z,18.80
2022-12-15T15:06:17.108Z,20.10
2022-12-15T15:08:48.428Z,19.13
2022-12-15T15:11:25.407Z,20.27
2022-12-15T15:13:56.797Z,20.57
2022-12-15T15:16:25.649Z,20.30
2022-12-15T15:18:56.780Z,18.83
2022-12-15T15:21:27.301Z,20.43
2022-12-15T15:24:01.876Z,20.57
2022-12-15T15:26:31.016Z,19.67
2022-12-15T15:28:59.602Z,20.40
2022-12-15T15:31:35.265Z,19.93
2022-12-15T15:34:07.041Z,20.47
2022-12-15T15:36:37.265Z,18.47
2022-12-15T15:39:16.592Z,19.27
2022-12-15T15:41:44.954Z,20.20
2022-12-15T15:44:14.745Z,19.93
2022-12-15T15:46:47.722Z,20.63
2022-12-15T15:49:19.763Z,20.83
2022-12-15T15:51:48.312Z,22.00
2022-12-15T15:54:20.253Z,20.87
2022-12-15T15:56:48.670Z,20.03
2022-12-15T15:59:18.585Z,21.37
2022-12-15T16:01:49.283Z,18.50
2022-12-15T16:04:17.617Z,18.17
2022-12-15T16:06:47.758Z,18.30
2022-12-15T16:09:18.022Z,20.37
2022-12-15T16:11:46.974Z,19.43
2022-12-15T16:14:17.625Z,18.77
2022-12-15T16:16:46.460Z,18.73
2022-12-15T16:19:14.957Z,20.13
2022-12-15T16:21:44.480Z,19.20
2022-12-15T16:24:17.453Z,18.70
2022-12-15T16:26:49.479Z,20.63
2022-12-15T16:29:20.088Z,19.20
2022-12-15T16:31:48.943Z,21.40
2022-12-15T16:34:19.163Z,20.77
2022-12-15T16:36:47.541Z,21.60
2022-12-15T16:39:28.425Z,21.53
2022-12-15T16:41:57.458Z,20.93
2022-12-15T16:44:26.395Z,20.63
2022-12-15T16:46:54.851Z,21.90
2022-12-15T16:49:23.307Z,20.23
2022-12-15T16:51:53.638Z,23.97
2022-12-15T16:54:23.922Z,21.73
2022-12-15T16:56:54.203Z,19.70
2022-12-15T16:59:33.137Z,22.80
2022-12-15T17:02:01.682Z,19.80
2022-12-15T17:04:30.106Z,20.73
2022-12-15T17:06:58.393Z,21.13
2022-12-15T17:09:27.183Z,21.33
2022-12-15T17:11:56.882Z,21.13
2022-12-15T17:14:25.296Z,20.40
2022-12-15T17:16:55.897Z,22.83
2022-12-15T17:19:24.137Z,24.73
2022-12-15T17:21:54.051Z,25.50
2022-12-15T17:24:23.124Z,22.67
2022-12-15T17:26:51.676Z,21.37
2022-12-15T17:29:23.025Z,23.33
2022-12-15T17:31:51.455Z,23.50
2022-12-15T17:34:27.735Z,25.57
2022-12-15T17:36:56.357Z,25.10
2022-12-15T17:39:24.803Z,28.80
2022-12-15T17:42:02.658Z,27.87
2022-12-15T17:44:38.225Z,25.90
2022-12-15T17:47:09.222Z,25.93
2022-12-15T17:49:39.190Z,22.57
2022-12-15T17:52:16.586Z,24.17
2022-12-15T17:54:44.983Z,32.50
2022-12-15T17:57:13.577Z,33.87
2022-12-15T17:59:43.256Z,24.47
2022-12-15T18:02:13.505Z,24.17
2022-12-15T18:04:42.219Z,23.47
2022-12-15T18:07:17.223Z,22.50
2022-12-15T18:09:45.632Z,26.17
2022-12-15T18:12:19.512Z,23.63
2022-12-15T18:14:49.427Z,23.00
2022-12-15T18:17:17.729Z,24.77
2022-12-15T18:19:46.424Z,28.37
2022-12-15T18:22:16.631Z,27.10
2022-12-15T18:24:45.044Z,24.60
2022-12-15T18:27:23.435Z,28.87
2022-12-15T18:29:53.926Z,26.67
2022-12-15T18:32:23.791Z,22.87
2022-12-15T18:34:52.396Z,24.73
2022-12-15T18:37:22.978Z,24.67
2022-12-15T18:39:51.771Z,25.37
2022-12-15T18:42:23.019Z,24.30
2022-12-15T18:44:54.077Z,24.47
2022-12-15T18:47:25.138Z,24.87
2022-12-15T18:49:53.470Z,24.70
2022-12-15T18:52:23.701Z,25.10
2022-12-15T18:54:53.091Z,24.87
2022-12-15T18:57:28.817Z,25.30
2022-12-15T19:00:00.272Z,25.83
2022-12-15T19:02:29.086Z,24.87
2022-12-15T19:04:57.431Z,26.30
2022-12-15T19:07:25.995Z,27.27
2022-12-15T19:09:54.406Z,25.20
2022-12-15T19:12:22.778Z,23.77
2022-12-15T19:14:52.317Z,24.00
2022-12-15T19:17:40.934Z,25.33
2022-12-15T19:20:34.327Z,23.37
2022-12-15T19:23:02.605Z,24.23
2022-12-15T19:25:31.171Z,25.03
2022-12-15T19:28:00.247Z,23.27
2022-12-15T19:30:30.505Z,22.83
2022-12-15T19:33:00.534Z,21.93
2022-12-15T19:35:29.599Z,24.03
2022-12-15T19:37:59.402Z,24.67
2022-12-15T19:40:30.248Z,22.20
2022-12-15T19:42:59.328Z,23.27
2022-12-15T19:45:29.019Z,21.03
2022-12-15T19:47:57.532Z,23.13
2022-12-15T19:50:29.804Z,23.33
2022-12-15T19:53:00.824Z,22.83
2022-12-15T19:55:33.604Z,21.57
2022-12-15T19:58:02.319Z,23.10
2022-12-15T20:00:30.569Z,23.37
2022-12-15T20:02:59.003Z,21.63
2022-12-15T20:05:28.696Z,22.90
2022-12-15T20:07:57.075Z,22.77
2022-12-15T20:10:32.351Z,22.63
2022-12-15T20:13:01.310Z,23.73
2022-12-15T20:15:29.711Z,24.87
2022-12-15T20:17:58.202Z,23.27
2022-12-15T20:20:29.011Z,25.70
2022-12-15T20:23:00.113Z,22.77
2022-12-15T20:25:30.855Z,22.13
2022-12-15T20:28:00.339Z,22.30
2022-12-15T20:30:32.492Z,22.73
2022-12-15T20:33:01.116Z,22.43
2022-12-15T20:35:33.358Z,22.13
2022-12-15T20:38:02.585Z,23.43
2022-12-15T20:40:31.272Z,23.27
2022-12-15T20:42:59.535Z,23.47
2022-12-15T20:45:28.169Z,22.47
2022-12-15T20:47:57.551Z,22.33
2022-12-15T20:50:28.613Z,22.47
2022-12-15T20:52:58.508Z,21.63
2022-12-15T20:55:26.792Z,22.93
2022-12-15T20:57:55.176Z,22.27
2022-12-15T21:00:24.177Z,22.10
2022-12-15T21:02:55.164Z,21.87
2022-12-15T21:05:26.021Z,22.90
2022-12-15T21:07:54.550Z,23.50
2022-12-15T21:10:24.199Z,22.43
2022-12-15T21:12:52.508Z,22.37
2022-12-15T21:15:22.600Z,22.73
2022-12-15T21:18:11.096Z,22.50
2022-12-15T21:20:41.524Z,22.50
2022-12-15T21:23:20.583Z,23.33
2022-12-15T21:25:50.540Z,22.37
2022-12-15T21:28:19.195Z,24.40
2022-12-15T21:30:48.048Z,22.90
2022-12-15T21:33:16.735Z,21.77
2022-12-15T21:35:47.177Z,23.23
2022-12-15T21:38:34.437Z,22.63
2022-12-15T21:41:06.630Z,21.83
2022-12-15T21:43:36.886Z,22.83
2022-12-15T21:46:14.385Z,21.73
2022-12-15T21:49:00.250Z,22.10
2022-12-15T21:51:31.064Z,22.53
2022-12-15T21:53:59.578Z,21.83
2022-12-15T21:56:29.329Z,23.30
2022-12-15T21:58:57.799Z,23.07
2022-12-15T22:01:29.281Z,21.33
2022-12-15T22:03:59.047Z,21.73
2022-12-15T22:06:28.599Z,23.17
2022-12-15T22:08:59.509Z,21.67
2022-12-15T22:11:31.020Z,24.23
2022-12-15T22:14:01.804Z,23.40
2022-12-15T22:16:30.308Z,21.90
2022-12-15T22:18:59.616Z,21.93
2022-12-15T22:21:28.413Z,21.50
2022-12-15T22:23:56.645Z,21.77
2022-12-15T22:26:31.742Z,23.03
2022-12-15T22:29:03.043Z,23.90
2022-12-15T22:31:31.325Z,23.57
2022-12-15T22:33:59.800Z,23.63
2022-12-15T22:36:27.999Z,23.50
2022-12-15T22:38:56.587Z,23.53
2022-12-15T22:41:25.606Z,23.20
2022-12-15T22:43:55.272Z,24.90
2022-12-15T22:46:29.276Z,25.47
2022-12-15T22:48:58.174Z,24.53
2022-12-15T22:51:26.430Z,25.37
2022-12-15T22:53:54.655Z,25.87
2022-12-15T22:56:25.157Z,23.23
2022-12-15T22:58:55.476Z,27.10
2022-12-15T23:01:25.696Z,27.73
2022-12-15T23:03:55.679Z,28.37
2022-12-15T23:06:24.196Z,29.87
2022-12-15T23:08:55.940Z,29.73
2022-12-15T23:11:39.003Z,27.57
2022-12-15T23:14:08.879Z,28.63
2022-12-15T23:16:37.945Z,28.93
2022-12-15T23:19:07.900Z,29.57
2022-12-15T23:21:37.241Z,30.47
2022-12-15T23:24:05.805Z,29.60
2022-12-15T23:26:34.109Z,30.37
2022-12-15T23:29:02.340Z,29.40
2022-12-15T23:31:30.900Z,30.80
2022-12-15T23:34:00.633Z,30.53
2022-12-15T23:36:29.039Z,31.20
2022-12-15T23:38:59.033Z,31.67
2022-12-15T23:41:29.237Z,32.47
2022-12-15T23:43:57.441Z,34.73
2022-12-15T23:46:25.851Z,36.37
2022-12-15T23:48:54.189Z,35.70
2022-12-15T23:51:24.722Z,35.60
2022-12-15T23:53:53.024Z,34.30
2022-12-15T23:56:25.258Z,34.33
2022-12-15T23:58:56.717Z,34.07
